Station Historical Data
Daily Summary for May 27, 2017 Units:  English    Metric   Both
« Previous Day
Next Day »
Daily Weekly Monthly Yearly Custom
  High: Low: Average:
Temperature: 69.0 °F 49.3 °F 58.8 °F
Dew Point: 55.7 °F 45.8 °F 51 °F
Humidity: 88 % 60 % 76 %
Wind Speed: 6.0 mph 0.0 mph 0.6 mph
Wind Gust: 11.0 mph - -
Wind:- - West
Pressure: 30.09 in 30.03 in -
Precipitation: 0.00 in    
Historical Graphs
 
 
Tabular Data for May 27, 2017
Time Temperature Dew Point Pressure Wind Wind Speed Wind Gust Humidity Rainfall Rate (Hourly) solar
00:01 52.3 °F 47.9 °F 30.03 in Calm     85 % 0.00 in 0.00 W/m2
00:06 52.3 °F 47.9 °F 30.03 in Calm     85 % 0.00 in 0.00 W/m2
00:11 52.2 °F 47.8 °F 30.03 in Calm     85 % 0.00 in 0.00 W/m2
00:16 52.1 °F 47.7 °F 30.03 in Calm     85 % 0.00 in 0.00 W/m2
00:21 52.0 °F 47.6 °F 30.03 in Calm     85 % 0.00 in 0.00 W/m2
00:26 51.9 °F 47.5 °F 30.03 in Calm     85 % 0.00 in 0.00 W/m2
00:31 51.9 °F 47.5 °F 30.03 in Calm     85 % 0.00 in 0.00 W/m2
00:36 51.8 °F 47.4 °F 30.03 in Calm     85 % 0.00 in 0.00 W/m2
00:41 51.7 °F 47.3 °F 30.03 in Calm     85 % 0.00 in 0.00 W/m2
00:46 51.7 °F 47.3 °F 30.03 in Calm     85 % 0.00 in 0.00 W/m2
00:51 51.6 °F 47.2 °F 30.03 in Calm     85 % 0.00 in 0.00 W/m2
00:56 51.5 °F 47.2 °F 30.03 in Calm     85 % 0.00 in 0.00 W/m2
01:01 51.4 °F 47.0 °F 30.03 in Calm     85 % 0.00 in 0.00 W/m2
01:11 51.4 °F 47.0 °F 30.03 in Calm     85 % 0.00 in 0.00 W/m2
01:16 51.3 °F 47.0 °F 30.03 in Calm     85 % 0.00 in 0.00 W/m2
01:21 51.2 °F 46.8 °F 30.04 in Calm     85 % 0.00 in 0.00 W/m2
01:26 51.1 °F 46.8 °F 30.04 in Calm     85 % 0.00 in 0.00 W/m2
01:31 51.0 °F 47.0 °F 30.04 in Calm     86 % 0.00 in 0.00 W/m2
01:36 50.9 °F 46.9 °F 30.04 in Calm     86 % 0.00 in 0.00 W/m2
01:41 50.8 °F 46.8 °F 30.04 in Calm     86 % 0.00 in 0.00 W/m2
01:46 50.7 °F 46.7 °F 30.04 in Calm     86 % 0.00 in 0.00 W/m2
01:51 50.6 °F 46.6 °F 30.04 in Calm     86 % 0.00 in 0.00 W/m2
01:56 50.5 °F 46.5 °F 30.03 in Calm     86 % 0.00 in 0.00 W/m2
02:01 50.3 °F 46.3 °F 30.04 in Calm     86 % 0.00 in 0.00 W/m2
02:06 50.2 °F 46.2 °F 30.04 in Calm     86 % 0.00 in 0.00 W/m2
02:11 50.1 °F 46.1 °F 30.04 in Calm     86 % 0.00 in 0.00 W/m2
02:17 50.0 °F 46.3 °F 30.04 in Calm     87 % 0.00 in 0.00 W/m2
02:22 49.9 °F 46.2 °F 30.04 in Calm     87 % 0.00 in 0.00 W/m2
02:27 49.9 °F 46.2 °F 30.04 in Calm     87 % 0.00 in 0.00 W/m2
02:32 49.9 °F 46.2 °F 30.04 in Calm     87 % 0.00 in 0.00 W/m2
02:37 49.9 °F 46.2 °F 30.04 in Calm     87 % 0.00 in 0.00 W/m2
02:40 49.9 °F 46.2 °F 30.04 in Calm     87 % 0.00 in 0.00 W/m2
02:45 49.9 °F 46.2 °F 30.04 in Calm     87 % 0.00 in 0.00 W/m2
02:50 49.9 °F 46.2 °F 30.04 in Calm     87 % 0.00 in 0.00 W/m2
02:55 49.8 °F 46.1 °F 30.04 in Calm     87 % 0.00 in 0.00 W/m2
03:00 49.7 °F 46.0 °F 30.04 in Calm     87 % 0.00 in 0.00 W/m2
03:05 49.6 °F 45.9 °F 30.04 in Calm     87 % 0.00 in 0.00 W/m2
03:10 49.5 °F 45.8 °F 30.04 in Calm     87 % 0.00 in 0.00 W/m2
03:15 49.5 °F 45.8 °F 30.03 in Calm   1.0 mph 87 % 0.00 in 0.00 W/m2
03:20 49.5 °F 45.8 °F 30.04 in Calm     87 % 0.00 in 0.00 W/m2
03:25 49.5 °F 45.8 °F 30.03 in Calm     87 % 0.00 in 0.00 W/m2
03:30 49.4 °F 46.0 °F 30.03 in Calm     88 % 0.00 in 0.00 W/m2
03:35 49.5 °F 46.1 °F 30.03 in Calm   1.0 mph 88 % 0.00 in 0.00 W/m2
03:40 49.6 °F 46.2 °F 30.03 in Calm     88 % 0.00 in 0.00 W/m2
03:45 49.6 °F 46.2 °F 30.03 in Calm     88 % 0.00 in 0.00 W/m2
03:50 49.7 °F 46.3 °F 30.03 in Calm     88 % 0.00 in 0.00 W/m2
03:55 49.7 °F 46.3 °F 30.03 in Calm     88 % 0.00 in 0.00 W/m2
04:00 49.7 °F 46.3 °F 30.03 in Calm     88 % 0.00 in 0.00 W/m2
04:05 49.7 °F 46.3 °F 30.03 in Calm   1.0 mph 88 % 0.00 in 0.00 W/m2
04:11 49.7 °F 46.3 °F 30.03 in Calm     88 % 0.00 in 0.00 W/m2
04:16 49.7 °F 46.3 °F 30.03 in Calm     88 % 0.00 in 0.00 W/m2
04:21 49.7 °F 46.3 °F 30.03 in Calm     88 % 0.00 in 0.00 W/m2
04:26 49.7 °F 46.3 °F 30.03 in Calm     88 % 0.00 in 0.00 W/m2
04:31 49.6 °F 46.2 °F 30.03 in Calm     88 % 0.00 in 0.00 W/m2
04:36 49.7 °F 46.3 °F 30.03 in Calm     88 % 0.00 in 0.00 W/m2
04:41 49.6 °F 46.2 °F 30.03 in Calm     88 % 0.00 in 0.00 W/m2
04:46 49.6 °F 46.2 °F 30.03 in Calm     88 % 0.00 in 0.00 W/m2
04:56 49.6 °F 46.2 °F 30.04 in Calm     88 % 0.00 in 0.00 W/m2
05:01 49.5 °F 46.1 °F 30.04 in Calm     88 % 0.00 in 0.00 W/m2
05:06 49.5 °F 46.1 °F 30.04 in Calm     88 % 0.00 in 0.00 W/m2
05:11 49.4 °F 46.0 °F 30.04 in Calm     88 % 0.00 in 0.00 W/m2
05:16 49.4 °F 46.0 °F 30.04 in Calm     88 % 0.00 in 0.00 W/m2
05:21 49.4 °F 46.0 °F 30.04 in Calm     88 % 0.00 in 0.00 W/m2
05:26 49.4 °F 46.0 °F 30.04 in Calm     88 % 0.00 in 0.00 W/m2
05:31 49.4 °F 46.0 °F 30.04 in Calm     88 % 0.00 in 0.00 W/m2
05:36 49.3 °F 45.9 °F 30.05 in Calm     88 % 0.00 in 0.00 W/m2
05:41 49.3 °F 45.9 °F 30.05 in Calm     88 % 0.00 in 5.00 W/m2
05:46 49.3 °F 45.9 °F 30.05 in Calm     88 % 0.00 in 7.00 W/m2
05:51 49.3 °F 45.9 °F 30.05 in Calm     88 % 0.00 in 9.00 W/m2
05:56 49.3 °F 45.9 °F 30.05 in Calm     88 % 0.00 in 12.00 W/m2
06:01 49.3 °F 45.9 °F 30.05 in Calm     88 % 0.00 in 14.00 W/m2
06:06 49.3 °F 45.9 °F 30.05 in Calm     88 % 0.00 in 18.00 W/m2
06:07 49.3 °F 45.9 °F 30.05 in Calm     88 % 0.00 in 19.00 W/m2
06:12 49.4 °F 46.0 °F 30.05 in Calm     88 % 0.00 in 23.00 W/m2
06:17 49.5 °F 46.1 °F 30.05 in Calm     88 % 0.00 in 28.00 W/m2
06:22 49.5 °F 46.1 °F 30.05 in Calm     88 % 0.00 in 33.00 W/m2
06:27 49.6 °F 46.2 °F 30.06 in Calm     88 % 0.00 in 39.00 W/m2
06:32 49.7 °F 46.3 °F 30.06 in Calm     88 % 0.00 in 51.00 W/m2
06:37 49.7 °F 46.3 °F 30.06 in Calm     88 % 0.00 in 62.00 W/m2
06:42 49.8 °F 46.4 °F 30.06 in Calm     88 % 0.00 in 77.00 W/m2
06:47 49.9 °F 46.5 °F 30.06 in Calm     88 % 0.00 in 113.00 W/m2
06:52 50.0 °F 46.6 °F 30.06 in Calm     88 % 0.00 in 120.00 W/m2
06:53 50.0 °F 46.6 °F 30.06 in Calm     88 % 0.00 in 120.00 W/m2
06:58 50.0 °F 46.6 °F 30.06 in Calm     88 % 0.00 in 144.00 W/m2
07:03 50.1 °F 46.7 °F 30.06 in Calm     88 % 0.00 in 163.00 W/m2
07:08 50.2 °F 46.8 °F 30.06 in Calm     88 % 0.00 in 179.00 W/m2
07:13 50.3 °F 46.9 °F 30.06 in Calm     88 % 0.00 in 193.00 W/m2
07:18 50.4 °F 47.0 °F 30.06 in Calm     88 % 0.00 in 220.00 W/m2
07:23 50.5 °F 47.1 °F 30.06 in Calm     88 % 0.00 in 243.00 W/m2
07:26 50.6 °F 47.2 °F 30.06 in Calm     88 % 0.00 in 257.00 W/m2
07:31 50.7 °F 47.3 °F 30.06 in Calm     88 % 0.00 in 274.00 W/m2
07:36 50.9 °F 47.5 °F 30.06 in Calm     88 % 0.00 in 288.00 W/m2
07:41 51.0 °F 47.6 °F 30.06 in Calm     88 % 0.00 in 308.00 W/m2
07:46 51.1 °F 47.7 °F 30.06 in Calm     88 % 0.00 in 329.00 W/m2
07:52 51.3 °F 47.9 °F 30.06 in Calm     88 % 0.00 in 343.00 W/m2
08:01 51.6 °F 48.2 °F 30.06 in Calm     88 % 0.00 in 376.00 W/m2
08:06 51.8 °F 48.4 °F 30.06 in Calm     88 % 0.00 in 394.00 W/m2
08:11 52.0 °F 48.6 °F 30.07 in Calm     88 % 0.00 in 408.00 W/m2
08:16 52.3 °F 48.9 °F 30.07 in Calm     88 % 0.00 in 427.00 W/m2
08:21 52.5 °F 49.0 °F 30.07 in Calm     88 % 0.00 in 443.00 W/m2
08:27 52.8 °F 49.3 °F 30.07 in Calm     88 % 0.00 in 457.00 W/m2
08:32 52.9 °F 49.5 °F 30.07 in West 4.0 mph 6.0 mph 88 % 0.00 in 478.00 W/m2
08:37 53.2 °F 49.7 °F 30.07 in West 2.0 mph 2.0 mph 88 % 0.00 in 487.00 W/m2
08:42 53.4 °F 49.6 °F 30.08 in Calm     87 % 0.00 in 492.00 W/m2
08:47 53.7 °F 49.6 °F 30.08 in Calm     86 % 0.00 in 527.00 W/m2
08:52 54.0 °F 49.9 °F 30.08 in West 3.0 mph 3.0 mph 86 % 0.00 in 540.00 W/m2
08:57 54.3 °F 50.2 °F 30.08 in Calm   1.0 mph 86 % 0.00 in 418.00 W/m2
09:02 54.6 °F 50.2 °F 30.08 in Calm   3.0 mph 85 % 0.00 in 599.00 W/m2
09:07 54.7 °F 50.3 °F 30.08 in Calm     85 % 0.00 in 599.00 W/m2
09:12 54.9 °F 50.5 °F 30.08 in Calm   3.0 mph 85 % 0.00 in 622.00 W/m2
09:17 55.1 °F 50.4 °F 30.08 in West 4.0 mph 4.0 mph 84 % 0.00 in 631.00 W/m2
09:22 55.2 °F 50.1 °F 30.08 in Calm   1.0 mph 83 % 0.00 in 638.00 W/m2
09:23 55.2 °F 50.1 °F 30.08 in WNW 2.0 mph 5.0 mph 83 % 0.00 in 640.00 W/m2
09:28 55.4 °F 50.3 °F 30.08 in Calm     83 % 0.00 in 654.00 W/m2
09:33 55.6 °F 50.5 °F 30.08 in Calm   5.0 mph 83 % 0.00 in 680.00 W/m2
09:38 55.8 °F 50.4 °F 30.08 in Calm   3.0 mph 82 % 0.00 in 691.00 W/m2
09:43 55.9 °F 50.5 °F 30.08 in NW 4.0 mph 5.0 mph 82 % 0.00 in 708.00 W/m2
09:48 56.1 °F 50.7 °F 30.08 in Calm   6.0 mph 82 % 0.00 in 721.00 W/m2
09:53 56.4 °F 51.0 °F 30.08 in Calm     82 % 0.00 in 752.00 W/m2
09:58 56.6 °F 51.2 °F 30.08 in NW 3.0 mph 6.0 mph 82 % 0.00 in 759.00 W/m2
10:03 56.8 °F 51.4 °F 30.08 in WNW 4.0 mph 7.0 mph 82 % 0.00 in 777.00 W/m2
10:08 57.1 °F 51.7 °F 30.08 in Calm   3.0 mph 82 % 0.00 in 786.00 W/m2
10:13 57.2 °F 51.4 °F 30.08 in Calm   1.0 mph 81 % 0.00 in 288.00 W/m2
10:18 57.3 °F 51.5 °F 30.08 in Calm     81 % 0.00 in 288.00 W/m2
10:23 57.5 °F 51.7 °F 30.08 in Calm     81 % 0.00 in 754.00 W/m2
10:28 57.7 °F 51.9 °F 30.08 in Calm   5.0 mph 81 % 0.00 in 582.00 W/m2
10:33 58.0 °F 51.9 °F 30.08 in WSW 2.0 mph 7.0 mph 80 % 0.00 in 578.00 W/m2
10:38 58.2 °F 52.1 °F 30.09 in Calm   6.0 mph 80 % 0.00 in 946.00 W/m2
10:43 58.5 °F 52.4 °F 30.09 in West 5.0 mph 6.0 mph 80 % 0.00 in 951.00 W/m2
10:48 58.8 °F 52.3 °F 30.09 in Calm   7.0 mph 79 % 0.00 in 981.00 W/m2
10:53 59.1 °F 52.6 °F 30.09 in Calm   5.0 mph 79 % 0.00 in 946.00 W/m2
10:59 59.3 °F 52.8 °F 30.09 in NW 1.0 mph 6.0 mph 79 % 0.00 in 904.00 W/m2
11:04 59.6 °F 52.7 °F 30.09 in Calm   4.0 mph 78 % 0.00 in 907.00 W/m2
11:09 59.8 °F 52.9 °F 30.09 in Calm   4.0 mph 78 % 0.00 in 935.00 W/m2
11:14 60.1 °F 52.9 °F 30.09 in West 6.0 mph 7.0 mph 77 % 0.00 in 891.00 W/m2
11:19 60.3 °F 52.7 °F 30.09 in Calm   4.0 mph 76 % 0.00 in 937.00 W/m2
11:24 60.5 °F 53.3 °F 30.09 in Calm   3.0 mph 77 % 0.00 in 904.00 W/m2
11:29 60.8 °F 53.2 °F 30.09 in West 2.0 mph 6.0 mph 76 % 0.00 in 902.00 W/m2
11:34 61.0 °F 53.0 °F 30.09 in Calm   5.0 mph 75 % 0.00 in 893.00 W/m2
11:44 61.4 °F 53.4 °F 30.09 in Calm   4.0 mph 75 % 0.00 in 916.00 W/m2
11:49 61.8 °F 53.8 °F 30.09 in Calm   5.0 mph 75 % 0.00 in 912.00 W/m2
11:54 62.1 °F 53.7 °F 30.09 in Calm   3.0 mph 74 % 0.00 in 926.00 W/m2
11:59 62.6 °F 54.2 °F 30.09 in West 2.0 mph 5.0 mph 74 % 0.00 in 918.00 W/m2
12:04 63.0 °F 53.5 °F 30.09 in West 4.0 mph 7.0 mph 71 % 0.00 in 930.00 W/m2
12:09 63.3 °F 54.5 °F 30.09 in WNW 4.0 mph 7.0 mph 73 % 0.00 in 935.00 W/m2
12:14 63.6 °F 54.0 °F 30.09 in Calm   5.0 mph 71 % 0.00 in 935.00 W/m2
12:19 63.9 °F 54.7 °F 30.09 in Calm   7.0 mph 72 % 0.00 in 935.00 W/m2
12:24 64.3 °F 54.7 °F 30.09 in West 5.0 mph 6.0 mph 71 % 0.00 in 942.00 W/m2
12:29 64.8 °F 55.2 °F 30.09 in Calm     71 % 0.00 in 946.00 W/m2
12:34 65.2 °F 55.2 °F 30.09 in Calm   3.0 mph 70 % 0.00 in 946.00 W/m2
12:39 65.5 °F 55.1 °F 30.09 in WSW 4.0 mph 7.0 mph 69 % 0.00 in 953.00 W/m2
12:44 66.1 °F 54.8 °F 30.09 in West 2.0 mph 6.0 mph 67 % 0.00 in 949.00 W/m2
12:49 66.3 °F 54.6 °F 30.09 in Calm   6.0 mph 66 % 0.00 in 946.00 W/m2
12:54 66.5 °F 54.8 °F 30.09 in Calm   7.0 mph 66 % 0.00 in 953.00 W/m2
12:59 67.0 °F 55.7 °F 30.09 in SW 3.0 mph 3.0 mph 67 % 0.00 in 947.00 W/m2
13:04 67.5 °F 55.3 °F 30.09 in WSW 1.0 mph 7.0 mph 65 % 0.00 in 954.00 W/m2
13:09 67.0 °F 54.4 °F 30.08 in WSW 6.0 mph 6.0 mph 64 % 0.00 in 944.00 W/m2
13:14 66.5 °F 54.8 °F 30.08 in WSW 6.0 mph 7.0 mph 66 % 0.00 in 951.00 W/m2
13:19 66.8 °F 55.1 °F 30.08 in Calm   7.0 mph 66 % 0.00 in 946.00 W/m2
13:24 66.9 °F 54.8 °F 30.08 in Calm   6.0 mph 65 % 0.00 in 944.00 W/m2
13:29 66.8 °F 55.1 °F 30.08 in West 5.0 mph 9.0 mph 66 % 0.00 in 935.00 W/m2
13:34 66.5 °F 54.4 °F 30.08 in West 3.0 mph 6.0 mph 65 % 0.00 in 935.00 W/m2
13:39 66.6 °F 54.9 °F 30.08 in Calm   6.0 mph 66 % 0.00 in 933.00 W/m2
13:44 66.8 °F 54.7 °F 30.08 in SW 2.0 mph 11.0 mph 65 % 0.00 in 930.00 W/m2
13:49 66.9 °F 54.8 °F 30.08 in West 2.0 mph 7.0 mph 65 % 0.00 in 926.00 W/m2
13:54 67.0 °F 54.9 °F 30.08 in Calm   5.0 mph 65 % 0.00 in 925.00 W/m2
13:59 67.1 °F 55.0 °F 30.08 in Calm   6.0 mph 65 % 0.00 in 919.00 W/m2
14:04 67.1 °F 54.5 °F 30.08 in West 5.0 mph 6.0 mph 64 % 0.00 in 914.00 W/m2
14:09 67.1 °F 55.0 °F 30.08 in WSW 3.0 mph 9.0 mph 65 % 0.00 in 909.00 W/m2
14:15 67.2 °F 54.2 °F 30.08 in West 2.0 mph 5.0 mph 63 % 0.00 in 904.00 W/m2
14:20 67.3 °F 54.7 °F 30.08 in WSW 2.0 mph 4.0 mph 64 % 0.00 in 895.00 W/m2
14:25 67.5 °F 55.3 °F 30.08 in SW 2.0 mph 9.0 mph 65 % 0.00 in 888.00 W/m2
14:30 67.7 °F 55.1 °F 30.08 in WSW 5.0 mph 8.0 mph 64 % 0.00 in 882.00 W/m2
14:35 68.0 °F 55.0 °F 30.08 in Calm   6.0 mph 63 % 0.00 in 875.00 W/m2
14:40 68.4 °F 54.9 °F 30.08 in Calm   9.0 mph 62 % 0.00 in 865.00 W/m2
14:45 68.4 °F 54.4 °F 30.08 in WSW 4.0 mph 11.0 mph 61 % 0.00 in 858.00 W/m2
14:50 68.4 °F 55.3 °F 30.08 in Calm   7.0 mph 63 % 0.00 in 854.00 W/m2
14:55 68.5 °F 54.5 °F 30.08 in West 3.0 mph 8.0 mph 61 % 0.00 in 844.00 W/m2
15:00 68.6 °F 54.6 °F 30.08 in Calm   6.0 mph 61 % 0.00 in 835.00 W/m2
15:05 68.7 °F 55.2 °F 30.08 in Calm   4.0 mph 62 % 0.00 in 828.00 W/m2
15:10 68.7 °F 54.7 °F 30.07 in Calm   8.0 mph 61 % 0.00 in 816.00 W/m2
15:15 68.8 °F 55.3 °F 30.07 in WSW 2.0 mph 8.0 mph 62 % 0.00 in 803.00 W/m2
15:20 68.9 °F 54.9 °F 30.07 in WNW 4.0 mph 5.0 mph 61 % 0.00 in 791.00 W/m2
15:25 69.0 °F 55.0 °F 30.07 in West 2.0 mph 6.0 mph 61 % 0.00 in 784.00 W/m2
15:30 68.9 °F 54.9 °F 30.07 in Calm   3.0 mph 61 % 0.00 in 772.00 W/m2
15:35 69.0 °F 55.0 °F 30.07 in Calm   5.0 mph 61 % 0.00 in 763.00 W/m2
15:40 68.9 °F 54.9 °F 30.07 in Calm   8.0 mph 61 % 0.00 in 749.00 W/m2
15:45 68.8 °F 55.3 °F 30.07 in West 6.0 mph 7.0 mph 62 % 0.00 in 740.00 W/m2
15:50 68.9 °F 54.9 °F 30.07 in SW 3.0 mph 9.0 mph 61 % 0.00 in 726.00 W/m2
15:55 68.9 °F 54.9 °F 30.07 in Calm   6.0 mph 61 % 0.00 in 715.00 W/m2
16:00 69.0 °F 54.5 °F 30.07 in Calm     60 % 0.00 in 703.00 W/m2
16:05 68.8 °F 54.8 °F 30.07 in Calm   1.0 mph 61 % 0.00 in 693.00 W/m2
16:10 68.8 °F 55.3 °F 30.07 in Calm   6.0 mph 62 % 0.00 in 679.00 W/m2
16:15 68.8 °F 54.8 °F 30.07 in West 5.0 mph 9.0 mph 61 % 0.00 in 663.00 W/m2
16:20 68.9 °F 55.4 °F 30.07 in Calm   8.0 mph 62 % 0.00 in 650.00 W/m2
16:25 69.0 °F 54.5 °F 30.07 in SW 3.0 mph 6.0 mph 60 % 0.00 in 635.00 W/m2
16:30 69.0 °F 54.5 °F 30.07 in Calm   3.0 mph 60 % 0.00 in 622.00 W/m2
16:35 69.0 °F 55.0 °F 30.07 in West 2.0 mph 9.0 mph 61 % 0.00 in 603.00 W/m2
16:40 69.0 °F 54.5 °F 30.07 in West 3.0 mph 8.0 mph 60 % 0.00 in 592.00 W/m2
16:45 69.0 °F 55.0 °F 30.07 in WSW 3.0 mph 8.0 mph 61 % 0.00 in 580.00 W/m2
16:50 69.0 °F 54.5 °F 30.07 in Calm   6.0 mph 60 % 0.00 in 564.00 W/m2
16:55 69.0 °F 54.5 °F 30.07 in Calm   7.0 mph 60 % 0.00 in 550.00 W/m2
17:00 69.0 °F 54.5 °F 30.07 in WSW 4.0 mph 10.0 mph 60 % 0.00 in 534.00 W/m2
17:05 68.9 °F 54.5 °F 30.07 in Calm   6.0 mph 60 % 0.00 in 520.00 W/m2
17:10 68.9 °F 54.5 °F 30.07 in Calm   4.0 mph 60 % 0.00 in 503.00 W/m2
17:15 68.8 °F 54.4 °F 30.07 in SW 2.0 mph 6.0 mph 60 % 0.00 in 487.00 W/m2
17:20 68.8 °F 54.8 °F 30.07 in Calm   3.0 mph 61 % 0.00 in 473.00 W/m2
17:25 68.8 °F 54.8 °F 30.07 in SW 4.0 mph 5.0 mph 61 % 0.00 in 459.00 W/m2
17:30 68.9 °F 54.9 °F 30.07 in West 2.0 mph 7.0 mph 61 % 0.00 in 443.00 W/m2
17:35 68.7 °F 54.3 °F 30.07 in Calm   4.0 mph 60 % 0.00 in 429.00 W/m2
17:40 68.5 °F 54.5 °F 30.07 in Calm     61 % 0.00 in 410.00 W/m2
17:45 68.4 °F 54.9 °F 30.07 in Calm     62 % 0.00 in 397.00 W/m2
17:50 68.2 °F 54.7 °F 30.07 in Calm     62 % 0.00 in 380.00 W/m2
17:55 68.2 °F 54.7 °F 30.07 in Calm   6.0 mph 62 % 0.00 in 360.00 W/m2
18:00 68.2 °F 54.7 °F 30.07 in Calm   4.0 mph 62 % 0.00 in 346.00 W/m2
18:05 68.1 °F 54.2 °F 30.07 in Calm   1.0 mph 61 % 0.00 in 334.00 W/m2
18:10 68.1 °F 54.6 °F 30.07 in Calm     62 % 0.00 in 316.00 W/m2
18:15 68.0 °F 55.0 °F 30.07 in WSW 3.0 mph 5.0 mph 63 % 0.00 in 301.00 W/m2
18:20 68.0 °F 55.0 °F 30.07 in Calm   6.0 mph 63 % 0.00 in 283.00 W/m2
18:25 68.0 °F 55.0 °F 30.07 in WSW 3.0 mph 6.0 mph 63 % 0.00 in 267.00 W/m2
18:30 67.9 °F 54.4 °F 30.07 in Calm   5.0 mph 62 % 0.00 in 251.00 W/m2
18:35 67.9 °F 54.8 °F 30.07 in WSW 4.0 mph 4.0 mph 63 % 0.00 in 234.00 W/m2
18:40 67.8 °F 54.3 °F 30.07 in Calm   3.0 mph 62 % 0.00 in 221.00 W/m2
18:45 67.8 °F 55.2 °F 30.07 in Calm     64 % 0.00 in 206.00 W/m2
18:50 67.7 °F 55.1 °F 30.07 in Calm     64 % 0.00 in 190.00 W/m2
18:55 67.7 °F 55.1 °F 30.07 in Calm     64 % 0.00 in 174.00 W/m2
19:00 67.6 °F 54.6 °F 30.06 in Calm     63 % 0.00 in 156.00 W/m2
19:05 67.4 °F 55.2 °F 30.06 in Calm     65 % 0.00 in 139.00 W/m2
19:10 67.3 °F 55.6 °F 30.06 in Calm     66 % 0.00 in 121.00 W/m2
19:15 67.2 °F 55.0 °F 30.06 in Calm   2.0 mph 65 % 0.00 in 105.00 W/m2
19:20 67.1 °F 55.4 °F 30.06 in Calm     66 % 0.00 in 90.00 W/m2
19:25 67.0 °F 55.7 °F 30.06 in Calm     67 % 0.00 in 76.00 W/m2
19:30 66.8 °F 55.5 °F 30.06 in Calm     67 % 0.00 in 62.00 W/m2
19:35 66.7 °F 55.4 °F 30.06 in Calm     67 % 0.00 in 49.00 W/m2
19:40 66.5 °F 55.6 °F 30.06 in Calm     68 % 0.00 in 39.00 W/m2
19:46 66.3 °F 55.4 °F 30.06 in Calm     68 % 0.00 in 30.00 W/m2
19:51 66.1 °F 55.2 °F 30.06 in Calm     68 % 0.00 in 23.00 W/m2
19:56 65.8 °F 55.0 °F 30.06 in Calm     68 % 0.00 in 19.00 W/m2
20:01 65.6 °F 54.8 °F 30.06 in Calm     68 % 0.00 in 16.00 W/m2
20:06 65.4 °F 55.0 °F 30.06 in Calm     69 % 0.00 in 14.00 W/m2
20:11 65.2 °F 54.8 °F 30.07 in Calm     69 % 0.00 in 11.00 W/m2
20:16 64.9 °F 54.9 °F 30.07 in Calm     70 % 0.00 in 7.00 W/m2
20:21 64.7 °F 54.7 °F 30.07 in Calm     70 % 0.00 in 5.00 W/m2
20:26 64.4 °F 54.8 °F 30.07 in Calm     71 % 0.00 in 0.00 W/m2
20:31 64.1 °F 54.5 °F 30.07 in Calm     71 % 0.00 in 0.00 W/m2
20:36 63.8 °F 54.2 °F 30.07 in Calm     71 % 0.00 in 0.00 W/m2
20:41 63.5 °F 53.9 °F 30.07 in Calm     71 % 0.00 in 0.00 W/m2
20:46 63.2 °F 53.7 °F 30.07 in Calm     71 % 0.00 in 0.00 W/m2
20:51 62.9 °F 53.4 °F 30.07 in Calm     71 % 0.00 in 0.00 W/m2
20:56 62.6 °F 53.5 °F 30.07 in Calm     72 % 0.00 in 0.00 W/m2
21:01 62.3 °F 53.5 °F 30.07 in Calm     73 % 0.00 in 0.00 W/m2
21:06 62.0 °F 52.9 °F 30.07 in Calm     72 % 0.00 in 0.00 W/m2
21:11 61.7 °F 52.6 °F 30.07 in Calm     72 % 0.00 in 0.00 W/m2
21:16 61.5 °F 52.8 °F 30.07 in Calm     73 % 0.00 in 0.00 W/m2
21:21 61.2 °F 52.5 °F 30.07 in Calm     73 % 0.00 in 0.00 W/m2
21:26 61.0 °F 52.3 °F 30.07 in Calm     73 % 0.00 in 0.00 W/m2
21:31 60.7 °F 52.4 °F 30.07 in Calm     74 % 0.00 in 0.00 W/m2
21:36 60.4 °F 52.1 °F 30.07 in Calm     74 % 0.00 in 0.00 W/m2
21:41 60.2 °F 51.9 °F 30.07 in Calm     74 % 0.00 in 0.00 W/m2
21:46 60.0 °F 52.1 °F 30.07 in Calm     75 % 0.00 in 0.00 W/m2
21:51 59.8 °F 51.5 °F 30.07 in Calm     74 % 0.00 in 0.00 W/m2
21:56 59.6 °F 51.7 °F 30.07 in Calm     75 % 0.00 in 0.00 W/m2
22:01 59.5 °F 51.6 °F 30.07 in Calm     75 % 0.00 in 0.00 W/m2
22:06 59.3 °F 51.4 °F 30.07 in Calm     75 % 0.00 in 0.00 W/m2
22:11 59.2 °F 51.3 °F 30.07 in Calm     75 % 0.00 in 0.00 W/m2
22:16 59.0 °F 51.5 °F 30.08 in Calm     76 % 0.00 in 0.00 W/m2
22:21 59.0 °F 51.5 °F 30.07 in Calm     76 % 0.00 in 0.00 W/m2
22:26 58.9 °F 51.4 °F 30.07 in Calm     76 % 0.00 in 0.00 W/m2
22:31 58.8 °F 51.3 °F 30.07 in Calm     76 % 0.00 in 0.00 W/m2
22:36 58.7 °F 51.2 °F 30.07 in Calm     76 % 0.00 in 0.00 W/m2
22:41 58.7 °F 51.5 °F 30.07 in Calm     77 % 0.00 in 0.00 W/m2
22:46 58.6 °F 51.4 °F 30.07 in Calm     77 % 0.00 in 0.00 W/m2
22:51 58.6 °F 51.4 °F 30.07 in Calm     77 % 0.00 in 0.00 W/m2
22:57 58.5 °F 51.3 °F 30.07 in Calm     77 % 0.00 in 0.00 W/m2
23:02 58.4 °F 51.2 °F 30.07 in Calm     77 % 0.00 in 0.00 W/m2
23:07 58.4 °F 51.2 °F 30.07 in Calm     77 % 0.00 in 0.00 W/m2
23:12 58.4 °F 51.2 °F 30.07 in Calm     77 % 0.00 in 0.00 W/m2
23:17 58.3 °F 51.5 °F 30.07 in Calm     78 % 0.00 in 0.00 W/m2
23:22 58.3 °F 51.5 °F 30.07 in Calm     78 % 0.00 in 0.00 W/m2
23:27 58.2 °F 51.4 °F 30.07 in Calm     78 % 0.00 in 0.00 W/m2
23:32 58.1 °F 50.9 °F 30.07 in Calm     77 % 0.00 in 0.00 W/m2
23:37 58.0 °F 50.8 °F 30.07 in Calm     77 % 0.00 in 0.00 W/m2
23:42 58.0 °F 51.2 °F 30.07 in Calm     78 % 0.00 in 0.00 W/m2
23:47 57.9 °F 50.7 °F 30.07 in Calm     77 % 0.00 in 0.00 W/m2
23:52 57.9 °F 50.7 °F 30.07 in Calm     77 % 0.00 in 0.00 W/m2
23:57 57.9 °F 51.1 °F 30.07 in Calm     78 % 0.00 in 0.00 W/m2
Juneau County Weather
Compliments of Weather Underground - 4.5 mb
 WU-history PHP script courtesy of   Juneau County Weather.
powered by Cumulus v1.9.3 (1059)
Ambient Weather VWS v14.00
Top Contact Website Map Copyright © 2007 - 2018 Foresthillweather.com Never base important decisions on this or any weather information obtained from the Internet